Oakbrook, Washington
Current Conditions -  °F | °C
As of 8:58 AM on Friday 19 Dec 2014 (Local Time) from KTCM Reporting Station
Clear Clear  
Wind Chill:   Ceiling: Unl
Heat Index:   Visibility: 10mi
Dew Point:   Wind: 7mph
Humidity: 99%   Direction: 180°S
Pressure: 29.91"   Gusts: NA
Location:  47.1809°N, 122.548°W
Report Text: KTCM 191658Z AUTO 18006KT 10SM CLR 07/07 A2991 RMK AO2 SLP133 T00670065
Loading
Personal Weather Stations






























Interactive Weather Map New forecast layout! Learn more

10-Day Weather Forecast

Advertisements
Track Severe Weather on mobile